KDYS/DYS METAR and TAF weather

Enter ICAO airport designator
Station Type Date Time Source
KDYS METAR 2020/02/29 02:56 UTC NOAA

KDYS 290256Z AUTO 00000KT 10SM CLR 09/M01 A3029 RMK AO2 SLP255 T00891015 $


Station Type Date Time Source
KDYS Decoded METAR 2020/02/29 02:56 UTC NOAA

Abilene, Dyess Air Force Base, TX, United States (KDYS) 32-25-12N 099-51-25W
Feb 28, 2020 - 09:56 PM EST / 2020.02.29 0256 UTC
Wind: Calm:0
Visibility: 10 mile(s):0
Sky conditions: clear
Temperature: 48.0 F (8.9 C)
Dew Point: 29.3 F (-1.5 C)
Relative Humidity: 48%
Pressure (altimeter): 30.29 in. Hg (1025 hPa)
ob: KDYS 290256Z AUTO 00000KT 10SM CLR 09/M01 A3029 RMK AO2 SLP255 T00891015
cycle: 3

Station Type Date Time Source
KDYS TAF 2020/02/29 01:25 UTC NOAA

TAF KDYS 290100Z 2901/0107 VRB06KT 9999 SCT300 QNH3021INS
BECMG 2906/2907 19012KT 9999 SCT300 QNH3017INS
BECMG 2914/2915 19010G15KT 9999 BKN150 QNH3011INS
BECMG 2917/2918 20015G25KT 9999 BKN130 QNH2987INS
BECMG 0105/0106 19020G32KT 9999 SCT100 QNH2983INS TX21/2921Z TN06/2912Z

Example: see airport list